Time;durP1;ratioP1;P1;durP2;ratioP2;P2;SDS_P1;SDS_P2;PMS_P1;PMS_P2;Temp;Humidity;BMP_temperature;BMP_pressure;BME280_temperature;BME280_humidity;BME280_pressure;Samples;Min_cycle;Max_cycle;Signal;HPM_P1;HPM_P2
2021/12/30 00:01:13;;;;;;;;;3.00;2.00;;;;;16.49;72.16;101524.84;6340585;22;46005;-91
2021/12/30 00:03:40;;;;;;;;;4.00;4.00;;;;;16.51;72.10;101520.34;6341273;22;45191;-91
2021/12/30 00:06:06;;;;;;;;;1.25;1.25;;;;;16.52;72.24;101529.13;6341686;22;45195;-90
2021/12/30 00:08:32;;;;;;;;;4.75;4.75;;;;;16.52;72.11;101529.13;6340598;22;45487;-90
2021/12/30 00:10:58;;;;;;;;;2.25;2.25;;;;;16.52;71.82;101527.34;6341487;22;45318;-91
2021/12/30 00:13:23;;;;;;;;;2.00;2.00;;;;;16.52;72.05;101534.44;6341052;22;45192;-90
2021/12/30 00:15:51;;;;;;;;;0.75;0.75;;;;;16.49;71.85;101540.78;6312486;22;45254;-90
2021/12/30 00:18:17;;;;;;;;;6.00;4.50;;;;;16.45;72.20;101535.66;6341000;22;45365;-91
2021/12/30 00:20:42;;;;;;;;;1.25;1.25;;;;;16.44;71.98;101537.47;6311907;22;47925;-90
2021/12/30 00:23:10;;;;;;;;;3.00;2.00;;;;;16.44;72.16;101539.25;6341523;22;45209;-90
2021/12/30 00:25:41;;;;;;;;;10.00;9.00;;;;;16.41;72.45;101541.13;6313119;22;45330;-90
2021/12/30 00:28:10;;;;;;;;;2.75;2.75;;;;;16.43;72.09;101538.38;6341509;22;45186;-90
2021/12/30 00:30:36;;;;;;;;;3.00;3.00;;;;;16.44;72.42;101536.59;6312632;22;46204;-88
2021/12/30 00:33:01;;;;;;;;;0.00;0.00;;;;;16.44;71.87;101531.28;6341406;22;45282;-87
2021/12/30 00:35:27;;;;;;;;;7.00;7.00;;;;;16.40;71.96;101526.13;6313158;22;45262;-90
2021/12/30 00:37:52;;;;;;;;;1.00;1.00;;;;;16.45;72.03;101535.66;6313266;22;45900;-89
2021/12/30 00:40:18;;;;;;;;;5.50;5.50;;;;;16.45;72.19;101538.31;6312925;22;46890;-90
2021/12/30 00:42:43;;;;;;;;;6.25;6.25;;;;;16.47;71.70;101539.13;6312314;22;45613;-90
2021/12/30 00:45:09;;;;;;;;;1.75;1.75;;;;;16.48;72.26;101547.00;6313189;22;45283;-89
2021/12/30 00:47:34;;;;;;;;;3.50;3.50;;;;;16.51;72.12;101546.88;6341395;22;45210;-89
2021/12/30 00:50:00;;;;;;;;;1.00;1.00;;;;;16.52;71.97;101545.91;6312605;22;48237;-89
2021/12/30 00:52:26;;;;;;;;;5.00;5.00;;;;;16.54;71.88;101556.50;6312638;22;45804;-86
2021/12/30 00:54:51;;;;;;;;;4.25;4.00;;;;;16.53;71.71;101563.56;6341144;22;45392;-86
2021/12/30 00:57:17;;;;;;;;;2.75;2.00;;;;;16.53;72.22;101562.72;6341260;22;45354;-87
2021/12/30 00:59:42;;;;;;;;;0.50;0.50;;;;;16.57;71.77;101574.91;6340893;22;46183;-87
2021/12/30 01:02:08;;;;;;;;;3.75;3.25;;;;;16.59;72.46;101567.75;6341346;22;45176;-85
2021/12/30 01:04:33;;;;;;;;;3.50;2.25;;;;;16.61;71.97;101567.69;6313132;22;45252;-84
2021/12/30 01:06:59;;;;;;;;;4.25;2.50;;;;;16.66;71.98;101573.63;6312790;22;47419;-84
2021/12/30 01:09:24;;;;;;;;;5.25;5.25;;;;;16.64;72.15;101572.84;6341008;22;45184;-84
2021/12/30 01:11:49;;;;;;;;;4.00;3.00;;;;;16.64;71.77;101573.69;6313048;22;45294;-85
2021/12/30 01:14:20;;;;;;;;;2.00;2.00;;;;;16.63;71.95;101574.63;6341475;22;45244;-83
2021/12/30 01:16:50;;;;;;;;;8.75;8.25;;;;;16.65;72.03;101580.72;6312298;22;46329;-84
2021/12/30 01:21:52;;;;;;;;;6.00;6.00;;;;;16.65;71.55;101587.81;6340399;22;45411;-86
2021/12/30 01:24:19;;;;;;;;;6.00;6.00;;;;;16.65;71.98;101601.09;6340898;22;45317;-86
2021/12/30 01:26:45;;;;;;;;;9.00;8.50;;;;;16.67;72.10;101606.34;6341214;22;45380;-88
2021/12/30 01:29:10;;;;;;;;;1.50;1.50;;;;;16.64;72.15;101610.00;6340577;22;45348;-84
2021/12/30 01:31:35;;;;;;;;;2.25;2.25;;;;;16.65;72.18;101615.25;6340252;22;45171;-83
2021/12/30 01:34:01;;;;;;;;;7.75;7.25;;;;;16.67;72.06;101622.28;6341065;22;45198;-83
2021/12/30 01:36:27;;;;;;;;;6.00;5.50;;;;;16.67;71.40;101622.28;6340884;22;45199;-83
2021/12/30 01:38:54;;;;;;;;;8.25;8.25;;;;;16.67;71.80;101627.59;6340377;22;45927;-83
2021/12/30 01:41:21;;;;;;;;;3.00;3.00;;;;;16.67;71.92;101632.91;6340750;22;45278;-83
2021/12/30 01:43:47;;;;;;;;;3.50;3.50;;;;;16.65;71.74;101631.16;6340860;22;45312;-83
2021/12/30 01:46:13;;;;;;;;;3.75;2.25;;;;;16.68;72.37;101638.13;6340729;22;45289;-83
2021/12/30 01:48:38;;;;;;;;;13.00;13.00;;;;;16.67;72.32;101636.38;6312288;22;46297;-83
2021/12/30 01:51:06;;;;;;;;;6.50;5.00;;;;;16.69;72.16;101644.31;6340529;22;45274;-83
2021/12/30 01:53:32;;;;;;;;;12.00;11.00;;;;;16.70;72.21;101632.75;6340894;22;45234;-83
2021/12/30 01:55:58;;;;;;;;;11.25;11.25;;;;;16.68;72.25;101637.25;6340628;22;45197;-84
2021/12/30 01:58:24;;;;;;;;;10.50;9.75;;;;;16.69;72.15;101634.53;6340722;22;45227;-83
2021/12/30 02:00:51;;;;;;;;;8.75;8.50;;;;;16.69;72.04;101637.19;6340445;22;45541;-84
2021/12/30 02:03:17;;;;;;;;;9.75;8.00;;;;;16.70;72.60;101638.03;6340862;22;45339;-83
2021/12/30 02:05:43;;;;;;;;;11.50;9.25;;;;;16.71;72.23;101639.78;6340478;22;45349;-83
2021/12/30 02:08:13;;;;;;;;;11.00;11.00;;;;;16.72;72.47;101644.16;6340540;22;45496;-83
2021/12/30 02:10:42;;;;;;;;;6.00;5.00;;;;;16.72;72.47;101641.50;6340718;22;45394;-83
2021/12/30 02:13:09;;;;;;;;;3.00;3.00;;;;;16.71;72.26;101643.31;6340914;22;45237;-83
2021/12/30 02:15:34;;;;;;;;;3.00;2.00;;;;;16.70;72.03;101638.91;6340530;22;45318;-80
2021/12/30 02:18:01;;;;;;;;;3.00;2.25;;;;;16.73;72.44;101651.19;6340568;22;46450;-80
2021/12/30 02:20:58;;;;;;;;;3.75;2.75;;;;;16.74;72.60;101655.59;6340128;22;45518;-80
2021/12/30 02:23:33;;;;;;;;;4.75;4.75;;;;;16.73;72.43;101656.50;6340713;22;45226;-80
2021/12/30 02:26:04;;;;;;;;;7.25;6.00;;;;;16.69;72.25;101654.91;6340425;22;45365;-80
2021/12/30 02:28:33;;;;;;;;;4.00;4.00;;;;;16.71;72.58;101663.66;6340241;22;45241;-81
2021/12/30 02:31:02;;;;;;;;;4.00;4.00;;;;;16.70;72.27;101664.59;6339995;22;45197;-85
2021/12/30 02:33:28;;;;;;;;;1.75;1.75;;;;;16.70;72.54;101667.25;6340366;22;45253;-88
2021/12/30 02:35:54;;;;;;;;;9.25;9.25;;;;;16.72;72.36;101670.69;6340437;22;45417;-86
2021/12/30 02:38:21;;;;;;;;;6.25;6.25;;;;;16.71;72.13;101666.31;6340459;22;45504;-84
2021/12/30 02:40:50;;;;;;;;;4.00;3.75;;;;;16.73;72.34;101669.78;6340334;22;45172;-84
2021/12/30 02:43:33;;;;;;;;;3.00;1.50;;;;;16.72;72.14;101668.03;6340204;22;45333;-84
2021/12/30 02:46:00;;;;;;;;;2.00;1.00;;;;;16.72;71.99;101678.66;6340205;22;45112;-83
2021/12/30 02:48:28;;;;;;;;;3.25;3.00;;;;;16.69;72.11;101676.16;6340285;22;45377;-83
2021/12/30 02:50:57;;;;;;;;;8.00;7.50;;;;;16.70;72.25;101688.47;6341030;22;45574;-82
2021/12/30 02:53:22;;;;;;;;;1.00;1.00;;;;;16.61;72.16;101681.78;6341615;22;45219;-81
2021/12/30 02:55:50;;;;;;;;;4.00;4.00;;;;;16.58;72.46;101682.78;6341674;22;45148;-81
2021/12/30 02:58:17;;;;;;;;;0.50;0.50;;;;;16.58;72.31;101676.59;6341410;22;45275;-81
2021/12/30 03:00:44;;;;;;;;;0.25;0.25;;;;;16.57;72.00;101675.75;6341589;22;45376;-81
2021/12/30 03:03:20;;;;;;;;;0.75;0.00;;;;;16.58;72.45;101682.78;6341888;22;45226;-81
2021/12/30 03:05:47;;;;;;;;;1.00;1.00;;;;;16.57;72.29;101675.75;6341600;22;45349;-81
2021/12/30 03:08:13;;;;;;;;;1.00;1.00;;;;;16.58;72.01;101673.97;6341375;22;45226;-81
2021/12/30 03:10:39;;;;;;;;;2.00;1.00;;;;;16.56;72.02;101674.03;6341690;22;45145;-81
2021/12/30 03:13:08;;;;;;;;;1.00;1.00;;;;;16.56;71.70;101674.03;6341787;22;45231;-81
2021/12/30 03:15:34;;;;;;;;;0.25;0.25;;;;;16.56;71.69;101674.03;6341420;22;45432;-81
2021/12/30 03:18:00;;;;;;;;;1.00;1.00;;;;;16.54;71.99;101670.59;6341552;22;45318;-81
2021/12/30 03:20:25;;;;;;;;;0.00;0.00;;;;;16.54;71.78;101668.78;6341317;22;45170;-79
2021/12/30 03:22:51;;;;;;;;;3.25;0.00;;;;;16.56;72.14;101679.34;6342062;22;45136;-79
2021/12/30 03:25:16;;;;;;;;;0.00;0.00;;;;;16.57;72.12;101673.09;6341937;22;45107;-79
2021/12/30 03:27:43;;;;;;;;;0.00;0.00;;;;;16.58;71.93;101674.81;6341575;22;46299;-79
2021/12/30 03:30:13;;;;;;;;;0.75;0.00;;;;;16.60;71.58;101680.06;6341445;22;45188;-80
2021/12/30 03:32:39;;;;;;;;;0.00;0.00;;;;;16.60;71.45;101674.75;6341273;22;45410;-80
2021/12/30 03:35:05;;;;;;;;;0.50;0.50;;;;;16.58;71.90;101679.25;6341481;22;45464;-79
2021/12/30 03:37:30;;;;;;;;;0.00;0.00;;;;;16.59;71.82;101687.19;6341544;22;45171;-79
2021/12/30 03:39:56;;;;;;;;;0.25;0.25;;;;;16.57;71.24;101689.00;6341597;22;45143;-81
2021/12/30 03:42:21;;;;;;;;;0.00;0.00;;;;;16.58;71.67;101689.88;6341848;22;45399;-81
2021/12/30 03:44:48;;;;;;;;;0.00;0.00;;;;;16.61;71.23;101697.72;6341149;22;45123;-81
2021/12/30 03:47:17;;;;;;;;;0.00;0.00;;;;;16.59;71.41;101695.16;6341491;22;45569;-82
2021/12/30 03:49:45;;;;;;;;;0.00;0.00;;;;;16.59;71.63;101687.19;6341314;22;45545;-82
2021/12/30 03:52:15;;;;;;;;;0.00;0.00;;;;;16.58;71.58;101695.19;6341639;22;45196;-83
2021/12/30 03:54:40;;;;;;;;;0.00;0.00;;;;;16.56;71.50;101699.72;6341173;22;45282;-82
2021/12/30 03:57:05;;;;;;;;;0.75;0.50;;;;;16.53;71.37;101690.94;6341192;22;45393;-82
2021/12/30 03:59:31;;;;;;;;;0.00;0.00;;;;;16.56;71.40;101697.91;6341309;22;45288;-82
2021/12/30 04:01:56;;;;;;;;;0.00;0.00;;;;;16.57;71.59;101696.97;6341502;22;45363;-82
2021/12/30 04:04:21;;;;;;;;;0.00;0.00;;;;;16.59;71.30;101694.28;6341798;22;45301;-81
2021/12/30 04:06:47;;;;;;;;;0.25;0.25;;;;;16.61;71.65;101692.41;6341444;22;45315;-81
2021/12/30 04:09:12;;;;;;;;;0.00;0.00;;;;;16.60;71.44;101688.03;6341130;22;45283;-81
2021/12/30 04:11:38;;;;;;;;;1.25;1.25;;;;;16.61;71.27;101682.66;6341730;22;45290;-82
2021/12/30 04:14:04;;;;;;;;;0.00;0.00;;;;;16.63;71.37;101680.81;6341612;22;45360;-85
2021/12/30 04:16:29;;;;;;;;;0.00;0.00;;;;;16.65;71.46;101688.69;6341033;22;45424;-84
2021/12/30 04:18:55;;;;;;;;;0.75;0.75;;;;;16.68;71.12;101690.34;6341104;22;45152;-83
2021/12/30 04:21:21;;;;;;;;;1.00;1.00;;;;;16.68;71.27;101693.00;6341220;22;45147;-84
2021/12/30 04:23:47;;;;;;;;;0.00;0.00;;;;;16.71;71.19;101700.84;6341571;22;45495;-84
2021/12/30 04:26:12;;;;;;;;;3.00;0.00;;;;;16.72;71.60;101694.56;6341517;22;46288;-84
2021/12/30 04:28:38;;;;;;;;;0.00;0.00;;;;;16.73;71.19;101691.88;6341238;22;45235;-83
2021/12/30 04:31:04;;;;;;;;;0.00;0.00;;;;;16.73;71.22;101688.34;6341444;22;45222;-83
2021/12/30 04:33:29;;;;;;;;;0.00;0.00;;;;;16.73;71.48;101675.94;6341553;22;45219;-83
2021/12/30 04:35:56;;;;;;;;;0.00;0.00;;;;;16.73;71.06;101680.38;6341160;22;45421;-84
2021/12/30 04:38:27;;;;;;;;;0.00;0.00;;;;;16.74;71.08;101679.47;6341415;22;45502;-83
2021/12/30 04:40:53;;;;;;;;;0.00;0.00;;;;;16.77;70.85;101687.28;6313232;22;45266;-83
2021/12/30 04:43:18;;;;;;;;;0.00;0.00;;;;;16.75;71.19;101678.53;6341371;22;45421;-88
2021/12/30 04:45:46;;;;;;;;;1.00;1.00;;;;;16.75;71.09;101678.53;6340904;22;46118;-85
2021/12/30 04:48:12;;;;;;;;;0.00;0.00;;;;;16.76;70.82;101680.25;6341188;22;45363;-86
2021/12/30 04:50:37;;;;;;;;;0.00;0.00;;;;;16.76;71.13;101681.13;6341690;22;45469;-88
2021/12/30 04:53:03;;;;;;;;;0.00;0.00;;;;;16.79;70.68;101695.19;6341476;22;45271;-84
2021/12/30 04:55:28;;;;;;;;;1.00;0.00;;;;;16.79;70.61;101696.03;6340940;22;45314;-83
2021/12/30 04:57:54;;;;;;;;;0.00;0.00;;;;;16.75;70.52;101691.78;6341196;22;45341;-84
2021/12/30 05:00:19;;;;;;;;;0.00;0.00;;;;;16.72;70.72;101689.28;6341308;22;45399;-84
2021/12/30 05:05:51;;;;;;;;;1.00;0.75;;;;;16.67;70.80;101704.56;6270580;22;46027;-82
2021/12/30 05:08:19;;;;;;;;;0.25;0.00;;;;;16.63;70.37;101706.47;6341435;22;45381;-83
2021/12/30 05:10:45;;;;;;;;;0.00;0.00;;;;;16.62;70.08;101715.34;6341824;22;45221;-86
2021/12/30 05:13:10;;;;;;;;;0.25;0.00;;;;;16.58;70.58;101722.59;6312562;22;46833;-84
2021/12/30 05:15:37;;;;;;;;;0.50;0.00;;;;;16.54;70.79;101723.66;6340955;22;45340;-84
2021/12/30 05:18:08;;;;;;;;;0.00;0.00;;;;;16.52;70.69;101741.41;6341196;22;45410;-85
2021/12/30 05:20:34;;;;;;;;;1.00;1.00;;;;;16.50;71.07;101733.53;6340310;22;45290;-86
2021/12/30 05:22:59;;;;;;;;;0.50;0.50;;;;;16.47;70.75;101744.25;6340606;22;45386;-85
2021/12/30 05:25:26;;;;;;;;;1.00;1.00;;;;;16.46;71.07;101736.38;6341209;22;45440;-89
2021/12/30 05:27:51;;;;;;;;;0.25;0.25;;;;;16.45;70.95;101737.28;6341071;22;45436;-88
2021/12/30 05:30:19;;;;;;;;;0.00;0.00;;;;;16.46;70.93;101739.03;6312901;22;45361;-89
2021/12/30 05:32:45;;;;;;;;;0.25;0.25;;;;;16.44;70.99;101732.94;6341156;22;45310;-85
2021/12/30 05:35:12;;;;;;;;;1.00;0.00;;;;;16.41;70.86;101726.84;6340837;22;45269;-88
2021/12/30 05:37:40;;;;;;;;;1.25;0.50;;;;;16.39;71.01;101733.13;6340822;22;45212;-88
2021/12/30 05:40:07;;;;;;;;;0.00;0.00;;;;;16.38;70.85;101755.28;6341322;22;45318;-91
2021/12/30 05:42:33;;;;;;;;;0.25;0.25;;;;;16.35;70.95;101763.34;6312798;22;45975;-91
2021/12/30 05:44:58;;;;;;;;;0.25;0.25;;;;;16.31;70.81;101773.25;6312934;22;47008;-91
2021/12/30 05:47:24;;;;;;;;;2.25;1.00;;;;;16.27;70.79;101769.00;6341191;22;45345;-89
2021/12/30 05:49:49;;;;;;;;;0.25;0.00;;;;;16.23;71.05;101770.91;6312672;22;45333;-88
2021/12/30 05:52:15;;;;;;;;;0.75;0.75;;;;;16.20;70.97;101769.22;6340948;22;45211;-89
2021/12/30 05:54:42;;;;;;;;;2.75;1.00;;;;;16.19;71.13;101771.94;6341120;22;46622;-88
2021/12/30 05:57:08;;;;;;;;;3.75;1.00;;;;;16.20;70.97;101769.22;6340470;22;45179;-89
2021/12/30 05:59:33;;;;;;;;;4.00;1.00;;;;;16.17;71.24;101764.03;6341021;22;45268;-86
2021/12/30 06:01:59;;;;;;;;;2.75;1.00;;;;;16.14;71.07;101761.53;6340612;22;45294;-87
2021/12/30 06:04:25;;;;;;;;;2.25;0.00;;;;;16.13;70.84;101783.66;6341031;22;46415;-87
2021/12/30 06:06:51;;;;;;;;;3.75;1.75;;;;;16.09;71.14;101784.72;6340493;22;45413;-87
2021/12/30 06:09:16;;;;;;;;;1.50;1.00;;;;;16.06;71.48;101787.47;6340805;22;45393;-88
2021/12/30 06:11:41;;;;;;;;;1.00;1.00;;;;;16.02;71.43;101792.03;6312508;22;46844;-87
2021/12/30 06:14:07;;;;;;;;;3.00;1.00;;;;;16.01;71.16;101790.28;6340961;22;45360;-87
2021/12/30 06:16:33;;;;;;;;;1.75;1.75;;;;;16.00;71.25;101787.72;6312071;22;45261;-87
2021/12/30 06:18:59;;;;;;;;;3.00;0.00;;;;;15.99;71.28;101800.09;6340614;22;45309;-86
2021/12/30 06:21:25;;;;;;;;;3.25;1.00;;;;;15.95;71.47;101801.16;6340190;22;45251;-86
2021/12/30 06:23:52;;;;;;;;;2.00;1.00;;;;;15.95;71.39;101801.16;6310859;22;47263;-87
2021/12/30 06:26:18;;;;;;;;;1.00;1.00;;;;;15.94;71.61;101800.28;6340813;22;45139;-88
2021/12/30 06:28:43;;;;;;;;;3.00;1.00;;;;;15.91;71.09;101799.50;6340451;22;45175;-86
2021/12/30 06:31:09;;;;;;;;;1.25;1.00;;;;;15.90;71.31;101796.00;6312445;22;45911;-87
2021/12/30 06:33:34;;;;;;;;;1.00;1.00;;;;;15.90;71.13;101793.34;6312547;22;47459;-87
2021/12/30 06:36:00;;;;;;;;;3.50;1.50;;;;;15.86;71.21;101781.13;6312543;22;45170;-86
2021/12/30 06:38:25;;;;;;;;;4.00;2.00;;;;;15.88;71.27;101787.25;6340736;22;45369;-89
2021/12/30 06:40:50;;;;;;;;;1.75;1.75;;;;;15.82;71.30;101791.00;6313414;22;47062;-87
2021/12/30 06:43:16;;;;;;;;;5.75;4.50;;;;;15.82;71.28;101801.63;6313512;22;46916;-85
2021/12/30 06:45:44;;;;;;;;;0.25;0.25;;;;;15.81;71.38;101799.00;6312720;22;45305;-85
2021/12/30 06:48:13;;;;;;;;;3.50;0.50;;;;;15.79;71.23;101801.72;6341762;22;45350;-85
2021/12/30 06:50:39;;;;;;;;;4.50;2.00;;;;;15.79;71.36;101799.06;6341156;22;45169;-85
2021/12/30 06:53:04;;;;;;;;;4.50;1.00;;;;;15.77;71.12;101797.41;6341835;22;45234;-85
2021/12/30 06:55:29;;;;;;;;;3.00;2.00;;;;;15.75;71.35;101805.44;6341828;22;45177;-86
2021/12/30 06:57:55;;;;;;;;;2.25;1.75;;;;;15.73;71.16;101812.53;6342177;22;45298;-91
2021/12/30 07:00:21;;;;;;;;;2.25;1.00;;;;;15.73;71.21;101821.38;6341683;22;45424;-92
2021/12/30 07:02:46;;;;;;;;;3.50;2.00;;;;;15.68;71.25;101804.78;6341800;22;46143;-85
2021/12/30 07:05:13;;;;;;;;;2.50;1.50;;;;;15.70;71.30;101815.34;6341675;22;45302;-84
2021/12/30 07:07:38;;;;;;;;;2.25;2.00;;;;;15.67;71.41;101807.50;6341967;22;45306;-84
2021/12/30 07:10:05;;;;;;;;;1.25;0.50;;;;;15.66;71.23;101822.53;6341565;22;45472;-84
2021/12/30 07:12:31;;;;;;;;;2.00;2.00;;;;;15.63;70.96;101812.91;6341815;22;45159;-85
2021/12/30 07:14:57;;;;;;;;;3.25;2.75;;;;;15.60;71.21;101812.16;6341294;22;45226;-84
2021/12/30 07:17:23;;;;;;;;;5.50;5.25;;;;;15.59;71.44;101816.59;6340840;22;45231;-84
2021/12/30 07:19:48;;;;;;;;;2.25;1.25;;;;;15.59;71.23;101824.53;6341413;22;45540;-84
2021/12/30 07:22:13;;;;;;;;;3.75;2.00;;;;;15.58;71.01;101840.50;6312224;22;48004;-84
2021/12/30 07:24:39;;;;;;;;;5.00;3.50;;;;;15.53;70.94;101844.16;6312551;22;45786;-84
2021/12/30 07:27:04;;;;;;;;;7.00;1.25;;;;;15.52;71.33;101847.75;6341823;22;45148;-84
2021/12/30 07:29:29;;;;;;;;;4.25;3.25;;;;;15.50;71.16;101844.31;6312972;22;45345;-83
2021/12/30 07:31:55;;;;;;;;;2.25;2.25;;;;;15.49;70.94;101847.00;6341529;22;45490;-83
2021/12/30 07:34:20;;;;;;;;;1.00;1.00;;;;;15.47;71.21;101856.78;6341363;22;45457;-83
2021/12/30 07:36:45;;;;;;;;;2.75;1.00;;;;;15.45;71.09;101855.97;6341378;22;45361;-83
2021/12/30 07:39:11;;;;;;;;;3.25;2.00;;;;;15.44;70.91;101860.41;6341525;22;45358;-83
2021/12/30 07:41:37;;;;;;;;;3.25;1.25;;;;;15.45;71.14;101867.44;6341214;22;45397;-83
2021/12/30 07:44:02;;;;;;;;;1.00;1.00;;;;;15.43;70.96;101856.03;6341086;22;45410;-84
2021/12/30 07:46:28;;;;;;;;;4.00;3.75;;;;;15.44;71.23;101855.09;6341718;22;45335;-83
2021/12/30 07:48:53;;;;;;;;;2.50;1.00;;;;;15.45;70.91;101850.69;6341351;22;45762;-82
2021/12/30 07:51:18;;;;;;;;;5.75;3.75;;;;;15.44;71.32;101852.47;6312906;22;48420;-82
2021/12/30 07:53:44;;;;;;;;;6.25;2.75;;;;;15.47;71.16;101860.31;6312705;22;45479;-82
2021/12/30 07:56:11;;;;;;;;;5.25;3.25;;;;;15.48;71.11;101856.72;6340738;22;45278;-83
2021/12/30 07:58:36;;;;;;;;;3.75;3.00;;;;;15.48;71.27;101863.81;6341578;22;45151;-83
2021/12/30 08:01:02;;;;;;;;;3.50;3.25;;;;;15.47;71.17;101865.59;6341144;22;45377;-83
2021/12/30 08:03:28;;;;;;;;;3.00;1.75;;;;;15.50;71.11;101870.81;6341745;22;45505;-83
2021/12/30 08:05:53;;;;;;;;;6.50;2.75;;;;;15.50;70.88;101865.50;6341247;22;45152;-83
2021/12/30 08:08:19;;;;;;;;;9.25;3.50;;;;;15.51;71.46;101884.88;6312386;22;46032;-84
2021/12/30 08:10:44;;;;;;;;;4.00;2.50;;;;;15.55;71.19;101896.25;6341568;22;45426;-83
2021/12/30 08:13:10;;;;;;;;;4.00;3.00;;;;;15.52;70.86;101895.44;6330860;22;45337;-83
2021/12/30 08:15:35;;;;;;;;;3.00;2.50;;;;;15.50;71.16;101897.28;6336002;22;45358;-83
2021/12/30 08:18:02;;;;;;;;;2.50;2.50;;;;;15.50;71.16;101901.72;6340643;22;45425;-83
2021/12/30 08:20:27;;;;;;;;;7.25;3.50;;;;;15.52;71.11;101906.03;6339299;22;45265;-83
2021/12/30 08:22:53;;;;;;;;;5.25;4.00;;;;;15.54;71.04;101908.63;6340799;22;45377;-83
2021/12/30 08:25:20;;;;;;;;;6.75;4.25;;;;;15.57;71.03;101912.97;6340060;22;45437;-83
2021/12/30 08:27:47;;;;;;;;;5.50;3.75;;;;;15.58;71.00;101909.41;6339697;22;45215;-82
2021/12/30 08:30:16;;;;;;;;;2.25;2.25;;;;;15.59;70.99;101911.13;6340712;22;46374;-83
2021/12/30 08:32:42;;;;;;;;;3.00;3.00;;;;;15.62;70.98;101918.97;6340401;22;46091;-83
2021/12/30 08:35:09;;;;;;;;;1.50;1.50;;;;;15.63;70.62;101915.41;6340040;22;45219;-83
2021/12/30 08:37:35;;;;;;;;;14.75;3.25;;;;;15.63;70.58;101932.16;6340024;22;45291;-83
2021/12/30 08:40:03;;;;;;;;;6.75;3.50;;;;;15.63;70.57;101937.44;6341019;22;45309;-83
2021/12/30 08:42:29;;;;;;;;;3.75;3.75;;;;;15.64;70.62;101936.53;6338579;22;45551;-83
2021/12/30 08:44:58;;;;;;;;;5.75;4.00;;;;;15.67;70.55;101948.81;6340951;22;45397;-82
2021/12/30 08:47:24;;;;;;;;;5.00;3.00;;;;;15.68;70.45;101939.94;6338963;22;45333;-83
2021/12/30 08:49:50;;;;;;;;;4.75;2.00;;;;;15.72;70.44;101948.66;6311352;22;46102;-82
2021/12/30 08:52:18;;;;;;;;;4.50;3.00;;;;;15.73;70.26;101945.94;6340743;22;45226;-83
2021/12/30 08:54:44;;;;;;;;;6.50;3.25;;;;;15.73;70.54;101951.25;6340168;22;45247;-85
2021/12/30 08:57:10;;;;;;;;;8.50;3.00;;;;;15.75;70.34;101952.03;6311280;22;45827;-82
2021/12/30 08:59:36;;;;;;;;;8.25;3.75;;;;;15.75;70.36;101949.41;6340295;22;46282;-84
2021/12/30 09:02:04;;;;;;;;;4.75;1.00;;;;;15.77;70.05;101937.88;6340079;22;45873;-84
2021/12/30 09:04:30;;;;;;;;;4.25;4.00;;;;;15.77;70.01;101945.84;6311529;22;45372;-84
2021/12/30 09:06:55;;;;;;;;;2.00;2.00;;;;;15.77;70.15;101946.72;6340278;22;45287;-83
2021/12/30 09:09:20;;;;;;;;;10.25;5.50;;;;;15.77;70.23;101946.72;6339953;22;45314;-83
2021/12/30 09:11:46;;;;;;;;;5.00;3.25;;;;;15.81;69.91;101960.69;6339684;22;45337;-83
2021/12/30 09:14:13;;;;;;;;;3.00;2.00;;;;;15.81;69.83;101952.75;6340428;22;45203;-83
2021/12/30 09:16:40;;;;;;;;;7.00;3.00;;;;;15.82;69.90;101958.00;6311839;22;46054;-84
2021/12/30 09:19:06;;;;;;;;;3.25;2.50;;;;;15.85;69.85;101960.53;6311356;22;47369;-83
2021/12/30 09:21:31;;;;;;;;;1.00;1.00;;;;;15.86;70.22;101956.09;6339828;22;45342;-83
2021/12/30 09:23:56;;;;;;;;;4.00;3.00;;;;;15.91;70.22;101958.59;6340383;22;45353;-84
2021/12/30 09:26:22;;;;;;;;;3.00;2.00;;;;;15.91;69.98;101956.81;6339380;22;45252;-83
2021/12/30 09:28:47;;;;;;;;;4.00;4.00;;;;;15.95;69.86;101960.22;6312217;22;46813;-83
2021/12/30 09:31:12;;;;;;;;;5.75;3.00;;;;;15.98;69.86;101966.28;6339778;22;45281;-82
2021/12/30 09:33:38;;;;;;;;;4.25;3.50;;;;;15.96;69.99;101946.91;6340154;22;45274;-83
2021/12/30 09:36:04;;;;;;;;;6.50;1.00;;;;;15.97;69.88;101955.72;6340502;22;45303;-84
2021/12/30 09:38:30;;;;;;;;;2.00;2.00;;;;;16.00;69.75;101957.41;6339283;22;46212;-84
2021/12/30 09:40:56;;;;;;;;;7.50;2.50;;;;;15.97;70.06;101946.00;6340312;22;45186;-84
2021/12/30 09:43:22;;;;;;;;;10.50;4.50;;;;;16.01;69.87;101964.41;6340085;22;45301;-84
2021/12/30 09:45:47;;;;;;;;;8.00;3.00;;;;;16.00;69.95;101957.41;6311942;22;46130;-85
2021/12/30 09:48:15;;;;;;;;;7.50;3.00;;;;;16.02;69.51;101963.50;6339525;22;45205;-85
2021/12/30 09:50:50;;;;;;;;;4.00;2.75;;;;;16.04;70.07;101970.53;6311574;22;45668;-84
2021/12/30 09:53:24;;;;;;;;;5.25;3.00;;;;;16.06;69.50;101976.63;6339896;22;45382;-84
2021/12/30 09:55:52;;;;;;;;;5.75;2.50;;;;;16.06;69.99;101978.41;6339486;22;45225;-84
2021/12/30 09:58:18;;;;;;;;;6.00;3.50;;;;;16.10;70.16;101985.31;6340124;22;45516;-84
2021/12/30 10:00:44;;;;;;;;;7.50;3.50;;;;;16.13;69.57;101985.22;6339321;22;45332;-86
2021/12/30 10:03:10;;;;;;;;;6.00;4.00;;;;;16.16;69.75;101986.91;6340022;22;45277;-86
2021/12/30 10:05:38;;;;;;;;;4.25;2.50;;;;;16.20;69.96;101977.91;6340009;22;45411;-87
2021/12/30 10:08:06;;;;;;;;;3.25;2.25;;;;;16.25;69.76;101983.91;6339384;22;46420;-86
2021/12/30 10:10:36;;;;;;;;;4.00;3.25;;;;;16.29;69.57;101979.34;6339584;22;45370;-87
2021/12/30 10:13:19;;;;;;;;;4.75;2.75;;;;;16.26;69.50;101984.78;6339602;22;45210;-87
2021/12/30 10:15:47;;;;;;;;;5.75;4.00;;;;;16.30;69.66;101975.75;6339629;22;45415;-86
2021/12/30 10:18:13;;;;;;;;;3.75;3.00;;;;;16.31;69.39;101991.66;6338830;22;46369;-86
2021/12/30 10:20:40;;;;;;;;;4.50;2.50;;;;;16.31;69.46;101994.28;6310971;22;45507;-86
2021/12/30 10:23:20;;;;;;;;;4.00;3.00;;;;;16.36;69.09;101995.91;6311413;22;45308;-86
2021/12/30 10:25:58;;;;;;;;;3.00;2.50;;;;;16.34;69.41;101995.09;6339569;22;45175;-87
2021/12/30 10:28:40;;;;;;;;;5.00;2.00;;;;;16.33;69.11;101990.69;6338768;22;46268;-87
2021/12/30 10:31:11;;;;;;;;;4.75;4.00;;;;;16.31;69.63;101988.13;6311131;22;45361;-87
2021/12/30 10:33:46;;;;;;;;;6.00;4.00;;;;;16.30;68.88;101996.97;6311336;22;45286;-86
2021/12/30 10:36:26;;;;;;;;;7.50;4.00;;;;;16.29;68.96;101990.84;6339431;22;45376;-87
2021/12/30 10:38:53;;;;;;;;;2.75;2.75;;;;;16.30;68.97;101983.72;6339530;22;46310;-86
2021/12/30 10:41:22;;;;;;;;;3.00;3.00;;;;;16.32;69.38;101992.50;6339151;22;45200;-87
2021/12/30 10:43:52;;;;;;;;;4.50;2.00;;;;;16.33;69.38;101986.28;6339992;22;45222;-87
2021/12/30 10:46:20;;;;;;;;;4.75;3.25;;;;;16.36;69.49;101987.94;6310722;22;46986;-87
2021/12/30 10:48:49;;;;;;;;;6.50;4.75;;;;;16.41;69.22;101996.59;6339062;22;45549;-87
2021/12/30 10:51:30;;;;;;;;;2.00;2.00;;;;;16.44;69.44;101992.97;6338886;22;45614;-87
2021/12/30 10:53:58;;;;;;;;;4.25;4.25;;;;;16.45;68.87;101997.34;6339440;22;45388;-87
2021/12/30 10:56:33;;;;;;;;;2.25;2.00;;;;;16.47;68.74;101992.84;6338725;22;45424;-88
2021/12/30 10:59:11;;;;;;;;;5.00;4.00;;;;;16.47;69.20;101982.25;6339042;22;46173;-87
2021/12/30 11:01:42;;;;;;;;;3.50;3.25;;;;;16.49;69.01;101986.56;6337829;22;45163;-87
2021/12/30 11:04:08;;;;;;;;;5.00;2.00;;;;;16.51;69.15;101974.09;6339169;22;45396;-87
2021/12/30 11:06:35;;;;;;;;;8.50;4.50;;;;;16.55;68.94;101977.47;6338872;22;45232;-87
2021/12/30 11:09:09;;;;;;;;;3.25;3.00;;;;;16.59;68.70;101986.22;6338079;22;45420;-87
2021/12/30 11:11:35;;;;;;;;;7.50;4.00;;;;;16.59;68.84;101976.47;6309101;22;45475;-87
2021/12/30 11:14:07;;;;;;;;;3.50;3.00;;;;;16.61;68.59;101977.25;6312418;22;45333;-87
2021/12/30 11:16:50;;;;;;;;;1.75;1.75;;;;;16.61;69.03;101971.97;6341905;22;45311;-88
2021/12/30 11:19:17;;;;;;;;;2.75;1.75;;;;;16.64;68.87;101974.47;6313351;22;48104;-87
2021/12/30 11:21:44;;;;;;;;;6.25;2.00;;;;;16.68;68.97;101974.34;6340656;22;45388;-88
2021/12/30 11:24:10;;;;;;;;;4.25;3.00;;;;;16.69;68.76;101971.63;6339961;22;45380;-88
2021/12/30 11:26:37;;;;;;;;;4.50;3.50;;;;;16.71;68.70;101964.50;6341641;22;45145;-87
2021/12/30 11:29:06;;;;;;;;;2.00;2.00;;;;;16.74;67.94;101968.81;6312824;22;48058;-88